Terminal Aerodrome Forecast
Issued by NWS

Home | Current Version | Previous Version | Text Only | Print | Product List | Glossary On
Versions: 1 2 3 4 5 6 7 8 9 10 11 12 13 14
000
FTUS44 KLUB 242322
TAFCDS
TAF
KCDS 242322Z 2500/2524 21010KT P6SM SCT060
      TEMPO 2501/2504 TSRA BKN040CB
     FM250800 24009KT P6SM VCTS SCT050CB
     FM251500 17010KT P6SM SCT080 BKN200=

USA.gov is the U.S. government's official web portal to all federal, state and local government web resources and services.